sensor_id;sensor_type;location;lat;lon;timestamp;temperature;humidity
7970;DHT22;4030;52.362;9.206;2024-03-23T00:53:53;10.70;96.80
7970;DHT22;4030;52.362;9.206;2024-03-23T00:56:19;10.80;96.80
7970;DHT22;4030;52.362;9.206;2024-03-23T00:58:45;10.70;96.80
7970;DHT22;4030;52.362;9.206;2024-03-23T01:01:10;10.80;96.80
7970;DHT22;4030;52.362;9.206;2024-03-23T01:03:36;10.80;96.90
7970;DHT22;4030;52.362;9.206;2024-03-23T01:06:02;10.70;96.80
7970;DHT22;4030;52.362;9.206;2024-03-23T01:08:29;10.80;96.80
7970;DHT22;4030;52.362;9.206;2024-03-23T01:10:59;10.70;96.80
7970;DHT22;4030;52.362;9.206;2024-03-23T01:13:26;10.70;96.80
7970;DHT22;4030;52.362;9.206;2024-03-23T01:15:53;10.70;96.90
7970;DHT22;4030;52.362;9.206;2024-03-23T01:18:20;10.70;96.90
7970;DHT22;4030;52.362;9.206;2024-03-23T01:20:47;10.70;96.90
7970;DHT22;4030;52.362;9.206;2024-03-23T01:23:13;13.20;98.10
7970;DHT22;4030;52.362;9.206;2024-03-23T01:25:39;10.70;96.90
7970;DHT22;4030;52.362;9.206;2024-03-23T01:28:05;10.70;96.90
7970;DHT22;4030;52.362;9.206;2024-03-23T01:30:35;10.70;97.00
7970;DHT22;4030;52.362;9.206;2024-03-23T01:33:01;10.70;97.00
7970;DHT22;4030;52.362;9.206;2024-03-23T01:35:30;10.70;97.00
7970;DHT22;4030;52.362;9.206;2024-03-23T01:37:56;10.70;97.00
7970;DHT22;4030;52.362;9.206;2024-03-23T01:40:22;10.70;97.00
7970;DHT22;4030;52.362;9.206;2024-03-23T01:42:57;10.70;97.00
7970;DHT22;4030;52.362;9.206;2024-03-23T01:45:24;10.70;97.10
7970;DHT22;4030;52.362;9.206;2024-03-23T01:47:51;10.70;97.00
7970;DHT22;4030;52.362;9.206;2024-03-23T01:50:19;10.70;97.10
7970;DHT22;4030;52.362;9.206;2024-03-23T01:52:45;10.70;97.10
7970;DHT22;4030;52.362;9.206;2024-03-23T01:55:11;10.70;97.10
7970;DHT22;4030;52.362;9.206;2024-03-23T01:57:37;10.70;97.10
7970;DHT22;4030;52.362;9.206;2024-03-23T02:00:03;10.70;97.10
7970;DHT22;4030;52.362;9.206;2024-03-23T02:02:30;10.70;97.10
7970;DHT22;4030;52.362;9.206;2024-03-23T02:04:55;10.70;97.00
7970;DHT22;4030;52.362;9.206;2024-03-23T02:07:21;10.70;97.00
7970;DHT22;4030;52.362;9.206;2024-03-23T02:09:47;10.70;97.00
7970;DHT22;4030;52.362;9.206;2024-03-23T02:12:12;10.70;97.00
7970;DHT22;4030;52.362;9.206;2024-03-23T02:14:38;10.70;97.10
7970;DHT22;4030;52.362;9.206;2024-03-23T02:17:04;10.70;97.00
7970;DHT22;4030;52.362;9.206;2024-03-23T02:19:29;10.60;97.10
7970;DHT22;4030;52.362;9.206;2024-03-23T02:21:55;10.60;97.00
7970;DHT22;4030;52.362;9.206;2024-03-23T02:24:21;10.60;97.10
7970;DHT22;4030;52.362;9.206;2024-03-23T02:26:46;10.60;97.10
7970;DHT22;4030;52.362;9.206;2024-03-23T02:29:14;10.60;97.10
7970;DHT22;4030;52.362;9.206;2024-03-23T02:31:39;10.60;97.10
7970;DHT22;4030;52.362;9.206;2024-03-23T02:34:05;10.60;97.10
7970;DHT22;4030;52.362;9.206;2024-03-23T02:36:31;10.60;97.10
7970;DHT22;4030;52.362;9.206;2024-03-23T02:38:57;10.60;97.10
7970;DHT22;4030;52.362;9.206;2024-03-23T02:41:22;10.60;97.10
7970;DHT22;4030;52.362;9.206;2024-03-23T02:43:52;10.60;97.10
7970;DHT22;4030;52.362;9.206;2024-03-23T02:46:18;10.50;97.10
7970;DHT22;4030;52.362;9.206;2024-03-23T02:48:43;10.60;97.10
7970;DHT22;4030;52.362;9.206;2024-03-23T02:51:09;10.50;97.10
7970;DHT22;4030;52.362;9.206;2024-03-23T02:53:35;10.50;97.10
7970;DHT22;4030;52.362;9.206;2024-03-23T02:56:01;10.50;97.10
7970;DHT22;4030;52.362;9.206;2024-03-23T02:58:27;10.50;97.10
7970;DHT22;4030;52.362;9.206;2024-03-23T03:00:52;10.50;97.10
7970;DHT22;4030;52.362;9.206;2024-03-23T03:03:18;10.50;97.10
7970;DHT22;4030;52.362;9.206;2024-03-23T03:05:44;10.50;97.10
7970;DHT22;4030;52.362;9.206;2024-03-23T03:08:09;10.50;97.10
7970;DHT22;4030;52.362;9.206;2024-03-23T03:10:35;10.50;97.10
7970;DHT22;4030;52.362;9.206;2024-03-23T03:13:02;10.50;97.10
7970;DHT22;4030;52.362;9.206;2024-03-23T03:15:28;10.50;97.10
7970;DHT22;4030;52.362;9.206;2024-03-23T03:17:54;10.40;97.00
7970;DHT22;4030;52.362;9.206;2024-03-23T03:20:19;10.40;97.00
7970;DHT22;4030;52.362;9.206;2024-03-23T03:22:47;10.40;97.00
7970;DHT22;4030;52.362;9.206;2024-03-23T03:25:13;10.40;97.00
7970;DHT22;4030;52.362;9.206;2024-03-23T03:27:38;10.40;97.00
7970;DHT22;4030;52.362;9.206;2024-03-23T03:30:05;10.40;97.10
7970;DHT22;4030;52.362;9.206;2024-03-23T03:32:32;10.40;97.00
7970;DHT22;4030;52.362;9.206;2024-03-23T03:34:58;10.40;97.00
7970;DHT22;4030;52.362;9.206;2024-03-23T03:37:24;10.40;97.00
7970;DHT22;4030;52.362;9.206;2024-03-23T03:39:50;10.40;97.00
7970;DHT22;4030;52.362;9.206;2024-03-23T03:42:15;10.30;97.00
7970;DHT22;4030;52.362;9.206;2024-03-23T03:44:41;10.30;97.00
7970;DHT22;4030;52.362;9.206;2024-03-23T03:47:07;10.40;97.00
7970;DHT22;4030;52.362;9.206;2024-03-23T03:49:32;10.30;96.90
7970;DHT22;4030;52.362;9.206;2024-03-23T03:51:58;10.30;96.90
7970;DHT22;4030;52.362;9.206;2024-03-23T03:54:24;10.30;96.90
7970;DHT22;4030;52.362;9.206;2024-03-23T03:56:49;10.30;97.30
7970;DHT22;4030;52.362;9.206;2024-03-23T03:59:15;10.30;96.90
7970;DHT22;4030;52.362;9.206;2024-03-23T04:01:41;10.30;96.90
7970;DHT22;4030;52.362;9.206;2024-03-23T04:04:06;10.20;96.90
7970;DHT22;4030;52.362;9.206;2024-03-23T04:06:32;10.30;97.30
7970;DHT22;4030;52.362;9.206;2024-03-23T04:08:59;10.30;96.90
7970;DHT22;4030;52.362;9.206;2024-03-23T04:11:25;10.20;96.90
7970;DHT22;4030;52.362;9.206;2024-03-23T04:13:50;10.20;96.90
7970;DHT22;4030;52.362;9.206;2024-03-23T04:16:29;10.20;96.90
7970;DHT22;4030;52.362;9.206;2024-03-23T04:19:00;10.20;96.90
7970;DHT22;4030;52.362;9.206;2024-03-23T04:21:25;10.20;96.90
7970;DHT22;4030;52.362;9.206;2024-03-23T04:23:51;10.20;97.00
7970;DHT22;4030;52.362;9.206;2024-03-23T04:26:17;10.20;97.00
7970;DHT22;4030;52.362;9.206;2024-03-23T04:28:43;10.20;97.40
7970;DHT22;4030;52.362;9.206;2024-03-23T04:31:09;10.20;97.00
7970;DHT22;4030;52.362;9.206;2024-03-23T04:33:35;10.10;97.00
7970;DHT22;4030;52.362;9.206;2024-03-23T04:36:00;10.10;97.00
7970;DHT22;4030;52.362;9.206;2024-03-23T04:38:26;10.10;97.00
7970;DHT22;4030;52.362;9.206;2024-03-23T04:40:56;10.10;97.00
7970;DHT22;4030;52.362;9.206;2024-03-23T04:43:23;10.10;97.00
7970;DHT22;4030;52.362;9.206;2024-03-23T04:45:49;10.10;97.00
7970;DHT22;4030;52.362;9.206;2024-03-23T04:48:15;10.10;97.00
7970;DHT22;4030;52.362;9.206;2024-03-23T04:50:40;10.10;97.00
7970;DHT22;4030;52.362;9.206;2024-03-23T04:53:06;10.10;97.00
7970;DHT22;4030;52.362;9.206;2024-03-23T04:55:33;10.10;97.10
7970;DHT22;4030;52.362;9.206;2024-03-23T04:57:58;10.10;97.10
7970;DHT22;4030;52.362;9.206;2024-03-23T05:00:24;10.10;97.00
7970;DHT22;4030;52.362;9.206;2024-03-23T05:02:50;10.10;97.10
7970;DHT22;4030;52.362;9.206;2024-03-23T05:05:16;10.10;97.10
7970;DHT22;4030;52.362;9.206;2024-03-23T05:07:42;10.10;97.10
7970;DHT22;4030;52.362;9.206;2024-03-23T05:10:09;10.00;97.00
7970;DHT22;4030;52.362;9.206;2024-03-23T05:12:39;10.10;97.10
7970;DHT22;4030;52.362;9.206;2024-03-23T05:15:05;10.00;97.00
7970;DHT22;4030;52.362;9.206;2024-03-23T05:17:32;10.10;97.00
7970;DHT22;4030;52.362;9.206;2024-03-23T05:19:58;10.00;97.00
7970;DHT22;4030;52.362;9.206;2024-03-23T05:22:24;10.00;97.00
7970;DHT22;4030;52.362;9.206;2024-03-23T05:24:49;10.00;97.00
7970;DHT22;4030;52.362;9.206;2024-03-23T05:27:15;10.00;97.00
7970;DHT22;4030;52.362;9.206;2024-03-23T05:29:40;10.00;97.00
7970;DHT22;4030;52.362;9.206;2024-03-23T05:32:06;10.00;97.00
7970;DHT22;4030;52.362;9.206;2024-03-23T05:34:33;10.00;97.00
7970;DHT22;4030;52.362;9.206;2024-03-23T05:36:58;10.00;97.00
7970;DHT22;4030;52.362;9.206;2024-03-23T05:39:24;10.00;97.00
7970;DHT22;4030;52.362;9.206;2024-03-23T05:41:50;10.00;97.00
7970;DHT22;4030;52.362;9.206;2024-03-23T05:44:16;10.00;97.00
7970;DHT22;4030;52.362;9.206;2024-03-23T05:46:42;10.00;97.00
7970;DHT22;4030;52.362;9.206;2024-03-23T05:49:08;10.00;97.00
7970;DHT22;4030;52.362;9.206;2024-03-23T05:51:34;10.00;97.00
7970;DHT22;4030;52.362;9.206;2024-03-23T05:54:00;10.00;97.00
7970;DHT22;4030;52.362;9.206;2024-03-23T05:56:26;12.50;98.20
7970;DHT22;4030;52.362;9.206;2024-03-23T05:58:52;10.10;97.00
7970;DHT22;4030;52.362;9.206;2024-03-23T06:01:18;10.00;96.90
7970;DHT22;4030;52.362;9.206;2024-03-23T06:03:44;10.00;96.90
7970;DHT22;4030;52.362;9.206;2024-03-23T06:06:10;10.00;96.90
7970;DHT22;4030;52.362;9.206;2024-03-23T06:08:38;10.10;97.00
7970;DHT22;4030;52.362;9.206;2024-03-23T06:11:04;10.10;97.00
7970;DHT22;4030;52.362;9.206;2024-03-23T06:13:33;10.10;97.00
7970;DHT22;4030;52.362;9.206;2024-03-23T06:16:00;10.10;97.00
7970;DHT22;4030;52.362;9.206;2024-03-23T06:18:26;10.10;97.00
7970;DHT22;4030;52.362;9.206;2024-03-23T06:20:53;10.10;97.00
7970;DHT22;4030;52.362;9.206;2024-03-23T06:23:19;10.10;97.00
7970;DHT22;4030;52.362;9.206;2024-03-23T06:25:46;10.10;97.00
7970;DHT22;4030;52.362;9.206;2024-03-23T06:28:12;10.10;96.90
7970;DHT22;4030;52.362;9.206;2024-03-23T06:30:38;10.10;96.90
7970;DHT22;4030;52.362;9.206;2024-03-23T06:33:04;10.10;96.90
7970;DHT22;4030;52.362;9.206;2024-03-23T06:35:31;10.10;96.90
7970;DHT22;4030;52.362;9.206;2024-03-23T06:37:57;10.10;96.90
7970;DHT22;4030;52.362;9.206;2024-03-23T06:40:23;10.10;96.90
7970;DHT22;4030;52.362;9.206;2024-03-23T06:42:49;10.10;96.90
7970;DHT22;4030;52.362;9.206;2024-03-23T06:45:16;10.20;96.90
7970;DHT22;4030;52.362;9.206;2024-03-23T06:47:42;10.20;96.90
7970;DHT22;4030;52.362;9.206;2024-03-23T06:50:07;10.20;96.90
7970;DHT22;4030;52.362;9.206;2024-03-23T06:52:35;10.20;96.90
7970;DHT22;4030;52.362;9.206;2024-03-23T06:55:01;10.20;96.90
7970;DHT22;4030;52.362;9.206;2024-03-23T06:57:29;10.30;96.90
7970;DHT22;4030;52.362;9.206;2024-03-23T06:59:55;10.30;96.90
7970;DHT22;4030;52.362;9.206;2024-03-23T07:02:21;10.30;96.90
7970;DHT22;4030;52.362;9.206;2024-03-23T07:04:46;10.30;96.90
7970;DHT22;4030;52.362;9.206;2024-03-23T07:07:12;10.30;96.90
7970;DHT22;4030;52.362;9.206;2024-03-23T07:09:38;10.40;97.00
7970;DHT22;4030;52.362;9.206;2024-03-23T07:12:04;10.40;96.90
7970;DHT22;4030;52.362;9.206;2024-03-23T07:14:30;10.40;96.90
7970;DHT22;4030;52.362;9.206;2024-03-23T07:16:55;10.40;97.20
7970;DHT22;4030;52.362;9.206;2024-03-23T07:19:22;10.50;96.80
7970;DHT22;4030;52.362;9.206;2024-03-23T07:21:47;10.50;96.80
7970;DHT22;4030;52.362;9.206;2024-03-23T07:24:13;10.60;96.80
7970;DHT22;4030;52.362;9.206;2024-03-23T07:26:39;10.60;96.80
7970;DHT22;4030;52.362;9.206;2024-03-23T07:29:06;10.60;96.70
7970;DHT22;4030;52.362;9.206;2024-03-23T07:31:32;10.60;96.70
7970;DHT22;4030;52.362;9.206;2024-03-23T07:33:58;10.60;96.70
7970;DHT22;4030;52.362;9.206;2024-03-23T07:36:23;10.70;96.70
7970;DHT22;4030;52.362;9.206;2024-03-23T07:38:49;10.70;96.70
7970;DHT22;4030;52.362;9.206;2024-03-23T07:41:17;10.70;96.60
7970;DHT22;4030;52.362;9.206;2024-03-23T07:43:44;10.70;96.60
7970;DHT22;4030;52.362;9.206;2024-03-23T07:46:10;10.80;96.50
7970;DHT22;4030;52.362;9.206;2024-03-23T07:48:37;10.80;96.50
7970;DHT22;4030;52.362;9.206;2024-03-23T07:51:05;10.90;96.50
7970;DHT22;4030;52.362;9.206;2024-03-23T07:53:33;10.90;96.40
7970;DHT22;4030;52.362;9.206;2024-03-23T07:56:07;10.90;96.30
7970;DHT22;4030;52.362;9.206;2024-03-23T07:58:33;11.00;96.30
7970;DHT22;4030;52.362;9.206;2024-03-23T08:01:13;11.00;96.30
7970;DHT22;4030;52.362;9.206;2024-03-23T08:03:44;11.00;96.20
7970;DHT22;4030;52.362;9.206;2024-03-23T08:06:14;11.10;96.20
7970;DHT22;4030;52.362;9.206;2024-03-23T08:08:55;11.10;96.20
7970;DHT22;4030;52.362;9.206;2024-03-23T08:11:28;11.10;96.10
7970;DHT22;4030;52.362;9.206;2024-03-23T08:13:55;11.30;96.10
7970;DHT22;4030;52.362;9.206;2024-03-23T08:16:21;11.30;95.90
7970;DHT22;4030;52.362;9.206;2024-03-23T08:18:47;11.40;95.90
7970;DHT22;4030;52.362;9.206;2024-03-23T08:21:13;11.50;95.80
7970;DHT22;4030;52.362;9.206;2024-03-23T08:23:39;11.60;95.80
7970;DHT22;4030;52.362;9.206;2024-03-23T08:26:15;11.60;95.80
7970;DHT22;4030;52.362;9.206;2024-03-23T08:28:41;11.80;95.70
7970;DHT22;4030;52.362;9.206;2024-03-23T08:31:08;12.00;95.60
7970;DHT22;4030;52.362;9.206;2024-03-23T08:33:35;13.10;95.90
7970;DHT22;4030;52.362;9.206;2024-03-23T08:36:03;12.40;95.40
7970;DHT22;4030;52.362;9.206;2024-03-23T08:38:29;12.50;95.30
7970;DHT22;4030;52.362;9.206;2024-03-23T08:40:59;12.70;95.20
7970;DHT22;4030;52.362;9.206;2024-03-23T08:43:26;12.80;95.10
7970;DHT22;4030;52.362;9.206;2024-03-23T08:45:52;12.90;95.10
7970;DHT22;4030;52.362;9.206;2024-03-23T08:48:21;13.00;94.90
7970;DHT22;4030;52.362;9.206;2024-03-23T08:50:47;13.10;94.80
7970;DHT22;4030;52.362;9.206;2024-03-23T08:53:24;13.20;94.70
7970;DHT22;4030;52.362;9.206;2024-03-23T08:55:54;13.30;94.60
7970;DHT22;4030;52.362;9.206;2024-03-23T08:58:20;13.50;94.50
7970;DHT22;4030;52.362;9.206;2024-03-23T09:00:46;13.70;94.30
7970;DHT22;4030;52.362;9.206;2024-03-23T09:03:12;14.00;94.20
7970;DHT22;4030;52.362;9.206;2024-03-23T09:05:41;14.30;94.00
7970;DHT22;4030;52.362;9.206;2024-03-23T09:08:07;14.60;93.80
7970;DHT22;4030;52.362;9.206;2024-03-23T09:10:38;14.90;93.50
7970;DHT22;4030;52.362;9.206;2024-03-23T09:13:04;15.20;93.10
7970;DHT22;4030;52.362;9.206;2024-03-23T09:15:30;15.50;92.80
7970;DHT22;4030;52.362;9.206;2024-03-23T09:17:58;15.60;92.50
7970;DHT22;4030;52.362;9.206;2024-03-23T09:20:24;15.60;92.20
7970;DHT22;4030;52.362;9.206;2024-03-23T09:22:50;15.80;91.90
7970;DHT22;4030;52.362;9.206;2024-03-23T09:25:15;16.00;91.60
7970;DHT22;4030;52.362;9.206;2024-03-23T09:27:41;16.20;91.40
7970;DHT22;4030;52.362;9.206;2024-03-23T09:30:07;16.30;91.10
7970;DHT22;4030;52.362;9.206;2024-03-23T09:32:33;16.50;90.60
7970;DHT22;4030;52.362;9.206;2024-03-23T09:34:58;16.50;90.40
7970;DHT22;4030;52.362;9.206;2024-03-23T09:37:24;16.40;90.20
7970;DHT22;4030;52.362;9.206;2024-03-23T09:39:50;16.20;90.10
7970;DHT22;4030;52.362;9.206;2024-03-23T09:42:16;16.30;90.20
7970;DHT22;4030;52.362;9.206;2024-03-23T09:44:42;16.70;89.60
7970;DHT22;4030;52.362;9.206;2024-03-23T09:47:08;17.10;88.40
7970;DHT22;4030;52.362;9.206;2024-03-23T09:49:34;17.70;87.30
7970;DHT22;4030;52.362;9.206;2024-03-23T09:52:02;18.10;86.10
7970;DHT22;4030;52.362;9.206;2024-03-23T09:54:28;18.30;85.20
7970;DHT22;4030;52.362;9.206;2024-03-23T09:56:54;18.20;84.30
7970;DHT22;4030;52.362;9.206;2024-03-23T09:59:20;18.10;84.30
7970;DHT22;4030;52.362;9.206;2024-03-23T10:01:45;18.00;84.50
7970;DHT22;4030;52.362;9.206;2024-03-23T10:04:12;18.00;84.50
7970;DHT22;4030;52.362;9.206;2024-03-23T10:06:38;18.00;83.90
7970;DHT22;4030;52.362;9.206;2024-03-23T10:09:16;17.90;83.50
7970;DHT22;4030;52.362;9.206;2024-03-23T10:11:45;17.80;83.30
7970;DHT22;4030;52.362;9.206;2024-03-23T10:14:29;17.70;82.70
7970;DHT22;4030;52.362;9.206;2024-03-23T10:17:18;17.50;82.80
7970;DHT22;4030;52.362;9.206;2024-03-23T10:19:47;17.20;83.10
7970;DHT22;4030;52.362;9.206;2024-03-23T10:22:18;16.80;83.40
7970;DHT22;4030;52.362;9.206;2024-03-23T10:24:45;16.50;83.70
7970;DHT22;4030;52.362;9.206;2024-03-23T10:27:19;16.20;84.30
7970;DHT22;4030;52.362;9.206;2024-03-23T10:29:49;16.00;84.90
7970;DHT22;4030;52.362;9.206;2024-03-23T10:32:16;15.90;85.10
7970;DHT22;4030;52.362;9.206;2024-03-23T10:34:44;15.80;85.50
7970;DHT22;4030;52.362;9.206;2024-03-23T10:37:10;15.70;85.80
7970;DHT22;4030;52.362;9.206;2024-03-23T10:39:40;15.50;86.20
7970;DHT22;4030;52.362;9.206;2024-03-23T10:42:08;15.30;86.70
7970;DHT22;4030;52.362;9.206;2024-03-23T10:44:36;15.20;87.20
7970;DHT22;4030;52.362;9.206;2024-03-23T10:47:02;15.00;87.50
7970;DHT22;4030;52.362;9.206;2024-03-23T10:49:37;14.90;87.90
7970;DHT22;4030;52.362;9.206;2024-03-23T10:52:04;14.90;88.20
7970;DHT22;4030;52.362;9.206;2024-03-23T10:54:31;14.90;88.40
7970;DHT22;4030;52.362;9.206;2024-03-23T10:57:06;15.00;88.70
7970;DHT22;4030;52.362;9.206;2024-03-23T10:59:37;15.60;88.90
7970;DHT22;4030;52.362;9.206;2024-03-23T11:02:03;16.00;88.30
7970;DHT22;4030;52.362;9.206;2024-03-23T11:04:33;16.40;88.10
7970;DHT22;4030;52.362;9.206;2024-03-23T11:07:00;16.50;88.10
7970;DHT22;4030;52.362;9.206;2024-03-23T11:14:50;16.30;88.00
7970;DHT22;4030;52.362;9.206;2024-03-23T11:17:24;16.20;87.90
7970;DHT22;4030;52.362;9.206;2024-03-23T11:20:00;16.10;87.70
7970;DHT22;4030;52.362;9.206;2024-03-23T11:22:46;16.20;87.20
7970;DHT22;4030;52.362;9.206;2024-03-23T11:25:16;16.40;86.60
7970;DHT22;4030;52.362;9.206;2024-03-23T11:27:50;16.40;86.10
7970;DHT22;4030;52.362;9.206;2024-03-23T11:30:24;16.30;86.10
7970;DHT22;4030;52.362;9.206;2024-03-23T11:32:52;16.10;86.10
7970;DHT22;4030;52.362;9.206;2024-03-23T11:35:29;15.90;86.30
7970;DHT22;4030;52.362;9.206;2024-03-23T11:38:10;15.90;86.30
7970;DHT22;4030;52.362;9.206;2024-03-23T11:40:38;16.20;85.80
7970;DHT22;4030;52.362;9.206;2024-03-23T11:43:09;16.90;85.30
7970;DHT22;4030;52.362;9.206;2024-03-23T11:48:18;17.70;83.60
7970;DHT22;4030;52.362;9.206;2024-03-23T11:50:46;17.60;83.60
7970;DHT22;4030;52.362;9.206;2024-03-23T11:53:20;17.40;83.70
7970;DHT22;4030;52.362;9.206;2024-03-23T11:55:52;17.20;83.90
7970;DHT22;4030;52.362;9.206;2024-03-23T11:58:20;17.10;84.20
7970;DHT22;4030;52.362;9.206;2024-03-23T12:00:55;17.00;83.70
7970;DHT22;4030;52.362;9.206;2024-03-23T12:03:22;16.90;83.90
7970;DHT22;4030;52.362;9.206;2024-03-23T12:05:52;16.70;84.10
7970;DHT22;4030;52.362;9.206;2024-03-23T12:08:23;16.50;84.10
7970;DHT22;4030;52.362;9.206;2024-03-23T12:11:06;16.30;83.90
7970;DHT22;4030;52.362;9.206;2024-03-23T12:13:41;16.00;83.60
7970;DHT22;4030;52.362;9.206;2024-03-23T12:16:16;15.70;83.60
7970;DHT22;4030;52.362;9.206;2024-03-23T12:18:44;15.50;83.80
7970;DHT22;4030;52.362;9.206;2024-03-23T12:21:11;15.30;83.90
7970;DHT22;4030;52.362;9.206;2024-03-23T12:23:41;15.20;84.10
7970;DHT22;4030;52.362;9.206;2024-03-23T12:26:10;15.10;84.30
7970;DHT22;4030;52.362;9.206;2024-03-23T12:28:37;15.40;84.30
7970;DHT22;4030;52.362;9.206;2024-03-23T12:31:03;16.10;83.70
7970;DHT22;4030;52.362;9.206;2024-03-23T12:33:29;16.60;83.10
7970;DHT22;4030;52.362;9.206;2024-03-23T12:35:55;17.20;82.50
7970;DHT22;4030;52.362;9.206;2024-03-23T12:38:21;17.80;81.80
7970;DHT22;4030;52.362;9.206;2024-03-23T12:40:47;18.40;80.70
7970;DHT22;4030;52.362;9.206;2024-03-23T12:43:13;19.10;79.60
7970;DHT22;4030;52.362;9.206;2024-03-23T12:45:39;19.40;78.70
7970;DHT22;4030;52.362;9.206;2024-03-23T12:48:05;19.50;78.40
7970;DHT22;4030;52.362;9.206;2024-03-23T12:50:31;19.30;77.90
7970;DHT22;4030;52.362;9.206;2024-03-23T12:52:57;19.50;76.90
7970;DHT22;4030;52.362;9.206;2024-03-23T12:55:23;19.80;75.90
7970;DHT22;4030;52.362;9.206;2024-03-23T12:57:49;20.10;75.30
7970;DHT22;4030;52.362;9.206;2024-03-23T13:00:14;20.40;74.50
7970;DHT22;4030;52.362;9.206;2024-03-23T13:02:44;20.70;73.70
7970;DHT22;4030;52.362;9.206;2024-03-23T13:05:10;21.00;73.00
7970;DHT22;4030;52.362;9.206;2024-03-23T13:07:36;21.20;72.10
7970;DHT22;4030;52.362;9.206;2024-03-23T13:10:03;21.40;71.60
7970;DHT22;4030;52.362;9.206;2024-03-23T13:12:29;21.50;71.20
7970;DHT22;4030;52.362;9.206;2024-03-23T13:14:55;21.70;70.70
7970;DHT22;4030;52.362;9.206;2024-03-23T13:17:20;21.90;70.00
7970;DHT22;4030;52.362;9.206;2024-03-23T13:19:46;22.10;69.50
7970;DHT22;4030;52.362;9.206;2024-03-23T13:22:12;22.30;69.00
7970;DHT22;4030;52.362;9.206;2024-03-23T13:24:38;22.60;68.50
7970;DHT22;4030;52.362;9.206;2024-03-23T13:27:04;22.70;67.50
7970;DHT22;4030;52.362;9.206;2024-03-23T13:29:33;22.90;66.80
7970;DHT22;4030;52.362;9.206;2024-03-23T13:32:00;23.20;66.30
7970;DHT22;4030;52.362;9.206;2024-03-23T13:34:25;23.40;65.70
7970;DHT22;4030;52.362;9.206;2024-03-23T13:36:51;23.50;65.00
7970;DHT22;4030;52.362;9.206;2024-03-23T13:39:17;23.60;65.30
7970;DHT22;4030;52.362;9.206;2024-03-23T13:41:45;23.80;63.80
7970;DHT22;4030;52.362;9.206;2024-03-23T13:44:13;23.60;62.90
7970;DHT22;4030;52.362;9.206;2024-03-23T13:46:40;23.30;62.40
7970;DHT22;4030;52.362;9.206;2024-03-23T13:49:28;22.90;61.50
7970;DHT22;4030;52.362;9.206;2024-03-23T13:51:57;22.50;61.30
7970;DHT22;4030;52.362;9.206;2024-03-23T13:54:27;22.00;61.00
7970;DHT22;4030;52.362;9.206;2024-03-23T13:56:55;21.60;60.40
7970;DHT22;4030;52.362;9.206;2024-03-23T13:59:21;21.10;60.30
7970;DHT22;4030;52.362;9.206;2024-03-23T14:01:51;20.70;59.80
7970;DHT22;4030;52.362;9.206;2024-03-23T14:04:16;20.30;59.70
7970;DHT22;4030;52.362;9.206;2024-03-23T14:06:43;19.90;59.70
7970;DHT22;4030;52.362;9.206;2024-03-23T14:09:13;19.50;59.80
7970;DHT22;4030;52.362;9.206;2024-03-23T14:11:41;19.10;59.90
7970;DHT22;4030;52.362;9.206;2024-03-23T14:14:08;18.80;60.00
7970;DHT22;4030;52.362;9.206;2024-03-23T14:16:34;18.50;60.30
7970;DHT22;4030;52.362;9.206;2024-03-23T14:19:00;18.20;60.00
7970;DHT22;4030;52.362;9.206;2024-03-23T14:21:26;17.90;59.60
7970;DHT22;4030;52.362;9.206;2024-03-23T14:23:52;17.70;60.00
7970;DHT22;4030;52.362;9.206;2024-03-23T14:26:19;17.50;59.50
7970;DHT22;4030;52.362;9.206;2024-03-23T14:28:44;17.30;59.60
7970;DHT22;4030;52.362;9.206;2024-03-23T14:31:10;17.10;59.20
7970;DHT22;4030;52.362;9.206;2024-03-23T14:33:39;17.00;59.70
7970;DHT22;4030;52.362;9.206;2024-03-23T14:36:11;17.30;59.80
7970;DHT22;4030;52.362;9.206;2024-03-23T14:38:40;17.90;59.00
7970;DHT22;4030;52.362;9.206;2024-03-23T14:41:06;18.80;58.30
7970;DHT22;4030;52.362;9.206;2024-03-23T14:43:32;19.60;57.60
7970;DHT22;4030;52.362;9.206;2024-03-23T14:46:14;20.30;56.90
7970;DHT22;4030;52.362;9.206;2024-03-23T14:48:44;21.00;56.60
7970;DHT22;4030;52.362;9.206;2024-03-23T14:51:11;21.50;55.90
7970;DHT22;4030;52.362;9.206;2024-03-23T14:53:41;21.90;55.30
7970;DHT22;4030;52.362;9.206;2024-03-23T14:56:10;22.30;54.80
7970;DHT22;4030;52.362;9.206;2024-03-23T14:58:38;22.60;53.90
7970;DHT22;4030;52.362;9.206;2024-03-23T15:01:05;22.90;53.60
7970;DHT22;4030;52.362;9.206;2024-03-23T15:03:38;23.10;53.70
7970;DHT22;4030;52.362;9.206;2024-03-23T15:06:05;22.70;54.00
7970;DHT22;4030;52.362;9.206;2024-03-23T15:08:31;22.30;54.40
7970;DHT22;4030;52.362;9.206;2024-03-23T15:11:01;21.80;54.90
7970;DHT22;4030;52.362;9.206;2024-03-23T15:13:37;21.30;55.30
7970;DHT22;4030;52.362;9.206;2024-03-23T15:16:05;20.80;55.20
7970;DHT22;4030;52.362;9.206;2024-03-23T15:18:34;20.20;55.70
7970;DHT22;4030;52.362;9.206;2024-03-23T15:21:02;19.80;56.20
7970;DHT22;4030;52.362;9.206;2024-03-23T15:23:31;19.40;57.00
7970;DHT22;4030;52.362;9.206;2024-03-23T15:25:58;18.90;57.80
7970;DHT22;4030;52.362;9.206;2024-03-23T15:28:25;18.60;58.60
7970;DHT22;4030;52.362;9.206;2024-03-23T15:31:06;18.30;59.40
7970;DHT22;4030;52.362;9.206;2024-03-23T15:33:32;18.00;60.20
7970;DHT22;4030;52.362;9.206;2024-03-23T15:36:04;18.30;60.30
7970;DHT22;4030;52.362;9.206;2024-03-23T15:38:33;18.80;60.30
7970;DHT22;4030;52.362;9.206;2024-03-23T15:40:59;19.30;60.00
7970;DHT22;4030;52.362;9.206;2024-03-23T15:43:25;19.80;59.70
7970;DHT22;4030;52.362;9.206;2024-03-23T15:45:58;20.30;59.40
7970;DHT22;4030;52.362;9.206;2024-03-23T15:48:26;20.70;58.80
7970;DHT22;4030;52.362;9.206;2024-03-23T15:50:56;21.00;58.30
7970;DHT22;4030;52.362;9.206;2024-03-23T15:53:24;21.40;57.80
7970;DHT22;4030;52.362;9.206;2024-03-23T15:55:57;21.60;56.90
7970;DHT22;4030;52.362;9.206;2024-03-23T15:58:25;21.90;57.10
7970;DHT22;4030;52.362;9.206;2024-03-23T16:00:58;21.90;56.70
7970;DHT22;4030;52.362;9.206;2024-03-23T16:03:25;21.70;56.80
7970;DHT22;4030;52.362;9.206;2024-03-23T16:05:58;21.50;56.70
7970;DHT22;4030;52.362;9.206;2024-03-23T16:08:25;21.10;57.50
7970;DHT22;4030;52.362;9.206;2024-03-23T16:10:51;20.80;57.60
7970;DHT22;4030;52.362;9.206;2024-03-23T16:13:18;21.00;57.10
7970;DHT22;4030;52.362;9.206;2024-03-23T16:15:44;21.20;56.50
7970;DHT22;4030;52.362;9.206;2024-03-23T16:18:10;21.30;55.80
7970;DHT22;4030;52.362;9.206;2024-03-23T16:20:36;21.30;55.30
7970;DHT22;4030;52.362;9.206;2024-03-23T16:23:05;21.10;55.30
7970;DHT22;4030;52.362;9.206;2024-03-23T16:25:30;20.60;55.90
7970;DHT22;4030;52.362;9.206;2024-03-23T16:27:56;20.20;56.30
7970;DHT22;4030;52.362;9.206;2024-03-23T16:30:22;19.90;57.10
7970;DHT22;4030;52.362;9.206;2024-03-23T16:32:48;19.50;57.70
7970;DHT22;4030;52.362;9.206;2024-03-23T16:35:14;19.30;58.00
7970;DHT22;4030;52.362;9.206;2024-03-23T16:37:40;19.00;58.40
7970;DHT22;4030;52.362;9.206;2024-03-23T16:40:07;18.80;58.50
7970;DHT22;4030;52.362;9.206;2024-03-23T16:42:35;18.60;58.80
7970;DHT22;4030;52.362;9.206;2024-03-23T16:45:01;18.40;59.00
7970;DHT22;4030;52.362;9.206;2024-03-23T16:47:28;18.20;59.40
7970;DHT22;4030;52.362;9.206;2024-03-23T16:49:53;18.00;59.50
7970;DHT22;4030;52.362;9.206;2024-03-23T16:52:19;17.70;59.80
7970;DHT22;4030;52.362;9.206;2024-03-23T16:54:45;17.50;60.20
7970;DHT22;4030;52.362;9.206;2024-03-23T16:57:10;17.20;60.40
7970;DHT22;4030;52.362;9.206;2024-03-23T16:59:36;17.00;60.90
7970;DHT22;4030;52.362;9.206;2024-03-23T17:02:02;16.80;61.20
7970;DHT22;4030;52.362;9.206;2024-03-23T17:04:27;16.60;61.60